Time;durP1;ratioP1;P1;durP2;ratioP2;P2;SDS_P1;SDS_P2;PMS_P1;PMS_P2;Temp;Humidity;BMP_temperature;BMP_pressure;BME280_temperature;BME280_humidity;BME280_pressure;Samples;Min_cycle;Max_cycle;Signal;HPM_P1;HPM_P2
2021/09/05 00:01:19;;;;;;;11.53;10.53;;;13.80;99.90;;;;;;4993011;28;20675;-88
2021/09/05 00:03:45;;;;;;;11.23;10.33;;;13.80;99.90;;;;;;4990548;28;20636;-88
2021/09/05 00:06:14;;;;;;;11.33;10.23;;;13.80;99.90;;;;;;4989486;28;20631;-88
2021/09/05 00:08:42;;;;;;;10.17;9.30;;;13.70;99.90;;;;;;4990875;28;20655;-88
2021/09/05 00:11:09;;;;;;;11.23;10.33;;;13.70;99.90;;;;;;4992553;28;20661;-88
2021/09/05 00:13:36;;;;;;;10.83;9.90;;;13.70;99.90;;;;;;4993386;28;20628;-89
2021/09/05 00:16:03;;;;;;;11.17;10.20;;;13.70;99.90;;;;;;4985093;28;20998;-88
2021/09/05 00:18:30;;;;;;;10.80;9.70;;;13.70;99.90;;;;;;4988288;28;21115;-89
2021/09/05 00:20:57;;;;;;;10.13;9.30;;;13.60;99.90;;;;;;4991584;28;21233;-89
2021/09/05 00:23:25;;;;;;;11.77;10.77;;;13.60;99.90;;;;;;4983813;28;20628;-89
2021/09/05 00:25:51;;;;;;;12.87;11.70;;;13.50;99.90;;;;;;4988508;28;21007;-89
2021/09/05 00:28:18;;;;;;;11.60;10.63;;;13.60;99.90;;;;;;4982194;28;20980;-89
2021/09/05 00:30:45;;;;;;;11.40;10.40;;;13.60;99.90;;;;;;4989541;28;20668;-89
2021/09/05 00:33:12;;;;;;;11.50;10.40;;;13.50;99.90;;;;;;4989368;28;20620;-89
2021/09/05 00:35:38;;;;;;;10.97;9.93;;;13.50;99.90;;;;;;4988530;28;20982;-89
2021/09/05 00:38:05;;;;;;;10.37;9.47;;;13.50;99.90;;;;;;4987841;28;20667;-89
2021/09/05 00:40:33;;;;;;;12.07;11.00;;;13.50;99.90;;;;;;4987160;28;21046;-89
2021/09/05 00:43:00;;;;;;;11.40;10.60;;;13.50;99.90;;;;;;4987635;28;20616;-89
2021/09/05 00:45:27;;;;;;;11.00;10.00;;;13.40;99.90;;;;;;4994851;28;20622;-90
2021/09/05 00:47:54;;;;;;;10.20;9.40;;;13.40;99.90;;;;;;4984684;28;20621;-89
2021/09/05 00:50:21;;;;;;;11.47;10.40;;;13.40;99.90;;;;;;4990237;28;20652;-89
2021/09/05 00:52:48;;;;;;;10.90;9.90;;;13.50;99.90;;;;;;4981540;28;20639;-89
2021/09/05 00:55:14;;;;;;;11.20;10.10;;;13.40;99.90;;;;;;4996175;28;20611;-89
2021/09/05 00:57:44;;;;;;;12.23;11.20;;;13.30;99.90;;;;;;4982742;28;20662;-89
2021/09/05 01:00:12;;;;;;;10.60;9.73;;;13.40;99.90;;;;;;4987873;28;20660;-89
2021/09/05 01:02:39;;;;;;;12.07;10.97;;;13.40;99.90;;;;;;4985680;28;20632;-89
2021/09/05 01:05:07;;;;;;;10.07;9.23;;;13.30;99.90;;;;;;4992184;28;21040;-89
2021/09/05 01:07:34;;;;;;;10.80;9.80;;;13.20;99.90;;;;;;4987052;28;20632;-89
2021/09/05 01:10:01;;;;;;;11.00;10.10;;;13.10;99.90;;;;;;4986380;28;20683;-89
2021/09/05 01:12:28;;;;;;;9.90;9.10;;;13.10;99.90;;;;;;4992713;28;20636;-89
2021/09/05 01:14:56;;;;;;;11.70;10.67;;;13.20;99.90;;;;;;4986119;28;20661;-89
2021/09/05 01:17:23;;;;;;;12.57;11.20;;;13.20;99.90;;;;;;4987123;28;20632;-89
2021/09/05 01:19:50;;;;;;;12.70;11.23;;;13.30;99.90;;;;;;4992400;28;21240;-90
2021/09/05 01:22:17;;;;;;;11.10;10.27;;;13.20;99.90;;;;;;4987291;28;20629;-89
2021/09/05 01:24:44;;;;;;;11.57;10.67;;;13.10;99.90;;;;;;4991093;28;21177;-89
2021/09/05 01:27:12;;;;;;;11.73;10.73;;;13.10;99.90;;;;;;4983784;28;21003;-89
2021/09/05 01:29:39;;;;;;;12.10;11.00;;;13.10;99.90;;;;;;4987114;28;20659;-89
2021/09/05 01:32:07;;;;;;;11.70;10.73;;;13.10;99.90;;;;;;4984995;28;20634;-88
2021/09/05 01:34:33;;;;;;;11.50;10.50;;;13.00;99.90;;;;;;4993696;28;20635;-89
2021/09/05 01:37:00;;;;;;;12.60;11.47;;;13.00;99.90;;;;;;5000488;28;20669;-91
2021/09/05 01:39:27;;;;;;;11.27;10.23;;;13.00;99.90;;;;;;4996124;28;20616;-90
2021/09/05 01:41:54;;;;;;;11.13;10.17;;;13.00;99.90;;;;;;4994764;28;20872;-89
2021/09/05 01:44:24;;;;;;;10.67;9.80;;;13.10;99.90;;;;;;4992016;28;20616;-90
2021/09/05 01:46:51;;;;;;;11.10;10.20;;;13.00;99.90;;;;;;4992643;28;20640;-90
2021/09/05 01:49:18;;;;;;;10.40;9.53;;;13.00;99.90;;;;;;4989693;28;21186;-90
2021/09/05 01:51:45;;;;;;;11.13;10.23;;;12.90;99.90;;;;;;4994341;28;20715;-89
2021/09/05 01:54:12;;;;;;;10.90;10.00;;;12.90;99.90;;;;;;4989779;28;20632;-89
2021/09/05 01:56:38;;;;;;;10.67;9.77;;;12.80;99.90;;;;;;4988124;28;20632;-89
2021/09/05 01:59:06;;;;;;;10.20;9.40;;;12.90;99.90;;;;;;4994657;28;20668;-90
2021/09/05 02:01:35;;;;;;;11.17;10.27;;;12.90;99.90;;;;;;4987400;28;20688;-89
2021/09/05 02:04:04;;;;;;;11.17;10.27;;;12.90;99.90;;;;;;4988616;28;20629;-89
2021/09/05 02:06:31;;;;;;;10.10;9.30;;;12.90;99.90;;;;;;4988211;28;20636;-89
2021/09/05 02:08:59;;;;;;;12.30;11.30;;;12.80;99.90;;;;;;4986295;28;21262;-89
2021/09/05 02:11:27;;;;;;;11.17;10.17;;;12.70;99.90;;;;;;4993786;28;20648;-89
2021/09/05 02:13:54;;;;;;;11.03;10.13;;;12.80;99.90;;;;;;4987713;28;20640;-90
2021/09/05 02:16:21;;;;;;;10.37;9.30;;;12.80;99.90;;;;;;4994533;28;20619;-89
2021/09/05 02:18:49;;;;;;;10.43;9.47;;;12.80;99.90;;;;;;4985011;28;20670;-89
2021/09/05 02:21:16;;;;;;;10.40;9.50;;;12.70;99.90;;;;;;4992367;28;20662;-89
2021/09/05 02:23:43;;;;;;;10.13;9.43;;;12.70;99.90;;;;;;4994488;28;20623;-89
2021/09/05 02:26:10;;;;;;;11.00;10.00;;;12.60;99.90;;;;;;4996962;28;20636;-90
2021/09/05 02:28:37;;;;;;;10.60;9.80;;;12.60;99.90;;;;;;4990697;28;20631;-89
2021/09/05 02:31:04;;;;;;;10.03;9.13;;;12.50;99.90;;;;;;4988660;28;20661;-88
2021/09/05 02:33:31;;;;;;;10.97;10.07;;;12.50;99.90;;;;;;4974395;28;20631;-89
2021/09/05 02:35:59;;;;;;;12.43;11.33;;;12.50;99.90;;;;;;4988926;28;20613;-89
2021/09/05 02:38:26;;;;;;;11.50;10.43;;;12.50;99.90;;;;;;4992866;28;20668;-89
2021/09/05 02:40:53;;;;;;;10.37;9.50;;;12.60;99.90;;;;;;4989295;28;20661;-88
2021/09/05 02:43:20;;;;;;;12.17;11.03;;;12.70;99.90;;;;;;4989499;28;20624;-90
2021/09/05 02:45:47;;;;;;;10.37;9.47;;;12.60;99.90;;;;;;4984838;28;20632;-88
2021/09/05 02:48:14;;;;;;;11.60;10.60;;;12.60;99.90;;;;;;4984741;28;20641;-90
2021/09/05 02:50:41;;;;;;;10.70;9.87;;;12.50;99.90;;;;;;4992377;28;20682;-88
2021/09/05 02:53:09;;;;;;;11.37;10.57;;;12.50;99.90;;;;;;4985826;28;20628;-88
2021/09/05 02:55:36;;;;;;;11.30;10.30;;;12.50;99.90;;;;;;4986637;28;20636;-90
2021/09/05 02:58:03;;;;;;;12.77;11.40;;;12.50;99.90;;;;;;4982656;28;21242;-89
2021/09/05 03:00:29;;;;;;;12.87;11.87;;;12.50;99.90;;;;;;4991192;28;21062;-89
2021/09/05 03:02:56;;;;;;;13.27;12.27;;;12.40;99.90;;;;;;4987720;28;20625;-89
2021/09/05 03:05:24;;;;;;;11.80;10.90;;;12.40;99.90;;;;;;4989679;28;20679;-88
2021/09/05 03:07:50;;;;;;;12.30;11.23;;;12.40;99.90;;;;;;4988939;28;20627;-91
2021/09/05 03:10:18;;;;;;;14.20;13.00;;;12.30;99.90;;;;;;4995098;28;20625;-88
2021/09/05 03:12:45;;;;;;;14.00;12.80;;;12.40;99.90;;;;;;4988940;28;20830;-89
2021/09/05 03:15:12;;;;;;;14.03;12.83;;;12.40;99.90;;;;;;4983843;28;20630;-88
2021/09/05 03:17:39;;;;;;;13.77;12.70;;;12.30;99.90;;;;;;4989666;28;20660;-89
2021/09/05 03:20:07;;;;;;;14.70;13.20;;;12.40;99.90;;;;;;4989162;28;20656;-89
2021/09/05 03:22:35;;;;;;;16.77;15.50;;;12.30;99.90;;;;;;4988632;28;21118;-89
2021/09/05 03:25:03;;;;;;;14.50;13.30;;;12.30;99.90;;;;;;4990875;28;20636;-89
2021/09/05 03:27:31;;;;;;;13.47;12.43;;;12.30;99.90;;;;;;4984893;28;20628;-89
2021/09/05 03:29:58;;;;;;;13.27;12.27;;;12.40;99.90;;;;;;4989463;28;20651;-89
2021/09/05 03:32:26;;;;;;;14.97;13.73;;;12.30;99.90;;;;;;4990544;28;20631;-89
2021/09/05 03:34:53;;;;;;;15.43;14.03;;;12.40;99.90;;;;;;4984497;28;20614;-89
2021/09/05 03:37:20;;;;;;;14.17;13.03;;;12.40;99.90;;;;;;4986304;28;20632;-89
2021/09/05 03:39:47;;;;;;;15.07;13.83;;;12.40;99.90;;;;;;4979267;28;20653;-89
2021/09/05 03:42:14;;;;;;;13.77;12.70;;;12.40;99.90;;;;;;4991854;28;21201;-88
2021/09/05 03:44:42;;;;;;;13.33;12.23;;;12.40;99.90;;;;;;4992760;28;20985;-89
2021/09/05 03:47:09;;;;;;;13.73;12.33;;;12.40;99.90;;;;;;4990999;28;20671;-89
2021/09/05 03:49:38;;;;;;;14.23;13.20;;;12.40;99.90;;;;;;4981101;28;20651;-88
2021/09/05 03:52:06;;;;;;;13.87;12.53;;;12.40;99.90;;;;;;4987668;28;20629;-88
2021/09/05 03:54:32;;;;;;;13.50;12.37;;;12.30;99.90;;;;;;4992022;28;20628;-88
2021/09/05 03:56:59;;;;;;;13.63;12.53;;;12.20;99.90;;;;;;4984643;28;20649;-89
2021/09/05 03:59:27;;;;;;;13.17;12.07;;;12.20;99.90;;;;;;4983088;28;20664;-89
2021/09/05 04:01:55;;;;;;;12.87;11.90;;;12.20;99.90;;;;;;4983445;28;20702;-89
2021/09/05 04:04:22;;;;;;;12.13;11.20;;;12.20;99.90;;;;;;4985195;28;20628;-88
2021/09/05 04:07:00;;;;;;;14.37;13.17;;;12.10;99.90;;;;;;4988945;28;20633;-88
2021/09/05 04:12:11;;;;;;;14.03;13.03;;;12.10;99.90;;;;;;4990414;28;20589;-89
2021/09/05 04:14:37;;;;;;;13.23;12.23;;;12.10;99.90;;;;;;4983617;28;20647;-88
2021/09/05 04:17:06;;;;;;;13.67;12.47;;;12.10;99.90;;;;;;4951983;28;20634;-88
2021/09/05 04:19:33;;;;;;;12.70;11.70;;;12.10;99.90;;;;;;4986086;28;20683;-89
2021/09/05 04:21:59;;;;;;;12.03;11.03;;;12.10;99.90;;;;;;4981986;28;20664;-88
2021/09/05 04:24:26;;;;;;;12.87;11.87;;;12.10;99.90;;;;;;4992178;28;20663;-88
2021/09/05 04:26:53;;;;;;;12.83;11.90;;;12.10;99.90;;;;;;4982700;28;20641;-88
2021/09/05 04:29:20;;;;;;;12.97;11.93;;;12.10;99.90;;;;;;4987619;28;20823;-88
2021/09/05 04:31:47;;;;;;;13.80;12.57;;;12.10;99.90;;;;;;4990950;28;20625;-88
2021/09/05 04:34:16;;;;;;;13.57;12.47;;;12.10;99.90;;;;;;4993169;28;20608;-89
2021/09/05 04:36:43;;;;;;;11.70;10.70;;;12.10;99.90;;;;;;4991393;28;21202;-88
2021/09/05 04:39:09;;;;;;;12.00;11.00;;;12.00;99.90;;;;;;4992346;28;21004;-88
2021/09/05 04:41:36;;;;;;;11.00;10.10;;;11.90;99.90;;;;;;4983351;28;21174;-87
2021/09/05 04:44:04;;;;;;;11.17;10.17;;;12.00;99.90;;;;;;4980981;28;20629;-88
2021/09/05 04:46:30;;;;;;;12.13;11.13;;;12.00;99.90;;;;;;4989399;28;21195;-89
2021/09/05 04:48:57;;;;;;;11.67;10.77;;;12.00;99.90;;;;;;4990604;28;20628;-90
2021/09/05 04:51:25;;;;;;;12.47;11.50;;;12.00;99.90;;;;;;4992310;28;20655;-88
2021/09/05 04:53:52;;;;;;;11.33;10.27;;;12.00;99.90;;;;;;4985150;28;20643;-90
2021/09/05 04:56:19;;;;;;;10.93;10.13;;;11.80;99.90;;;;;;4984461;28;20996;-89
2021/09/05 04:58:47;;;;;;;10.30;9.40;;;11.80;99.90;;;;;;4986145;28;20683;-89
2021/09/05 05:01:14;;;;;;;12.77;11.77;;;11.80;99.90;;;;;;5001810;28;20664;-90
2021/09/05 05:03:41;;;;;;;11.70;10.53;;;11.80;99.90;;;;;;5010418;28;20665;-89
2021/09/05 05:06:09;;;;;;;10.27;9.47;;;11.80;99.90;;;;;;4990583;28;20627;-88
2021/09/05 05:08:37;;;;;;;11.30;10.30;;;11.90;99.90;;;;;;4992120;28;20639;-89
2021/09/05 05:11:04;;;;;;;10.97;10.07;;;11.90;99.90;;;;;;4990319;28;20667;-89
2021/09/05 05:13:31;;;;;;;11.57;10.67;;;12.00;99.90;;;;;;4976296;28;20635;-89
2021/09/05 05:15:58;;;;;;;10.87;9.93;;;12.00;99.90;;;;;;4992097;28;21149;-89
2021/09/05 05:18:25;;;;;;;11.37;10.47;;;11.90;99.90;;;;;;4988896;28;20678;-89
2021/09/05 05:20:52;;;;;;;11.37;10.57;;;12.00;99.90;;;;;;4986817;28;21253;-88
2021/09/05 05:23:19;;;;;;;12.13;11.23;;;12.10;99.90;;;;;;4990621;28;20630;-88
2021/09/05 05:25:47;;;;;;;11.73;10.83;;;12.10;99.90;;;;;;4987935;28;20615;-88
2021/09/05 05:28:14;;;;;;;13.27;12.27;;;12.30;99.90;;;;;;4989978;28;20631;-89
2021/09/05 05:30:41;;;;;;;12.97;11.57;;;12.30;99.90;;;;;;4986933;28;20644;-89
2021/09/05 05:33:08;;;;;;;12.00;11.13;;;12.30;99.90;;;;;;4974218;28;21292;-89
2021/09/05 05:35:35;;;;;;;12.27;11.33;;;12.40;99.90;;;;;;4989557;28;20630;-89
2021/09/05 05:38:01;;;;;;;11.30;10.50;;;12.40;99.90;;;;;;4988800;28;20616;-88
2021/09/05 05:40:32;;;;;;;12.20;11.20;;;12.40;99.90;;;;;;4991955;28;20671;-89
2021/09/05 05:43:00;;;;;;;11.27;10.37;;;12.50;99.90;;;;;;4989093;28;20632;-89
2021/09/05 05:45:27;;;;;;;10.83;9.93;;;12.60;99.90;;;;;;4989694;28;21197;-89
2021/09/05 05:47:54;;;;;;;10.67;9.77;;;12.60;99.90;;;;;;4981054;28;20621;-89
2021/09/05 05:50:21;;;;;;;11.73;10.60;;;12.70;99.90;;;;;;4991293;28;20656;-89
2021/09/05 05:52:48;;;;;;;10.80;9.90;;;12.70;99.90;;;;;;4988407;28;20640;-89
2021/09/05 05:55:15;;;;;;;10.33;9.50;;;12.90;99.90;;;;;;4991595;28;20613;-89
2021/09/05 05:57:42;;;;;;;12.00;11.00;;;13.00;99.90;;;;;;4983820;28;20952;-89
2021/09/05 06:00:11;;;;;;;13.10;12.07;;;13.10;99.90;;;;;;4991935;28;21125;-89
2021/09/05 06:02:38;;;;;;;12.57;11.57;;;13.20;99.90;;;;;;4987642;28;20635;-89
2021/09/05 06:05:07;;;;;;;13.40;12.30;;;13.20;99.90;;;;;;4971123;28;21203;-89
2021/09/05 06:07:34;;;;;;;13.53;12.33;;;13.30;99.90;;;;;;4993417;28;20643;-89
2021/09/05 06:10:01;;;;;;;12.17;11.17;;;13.40;99.90;;;;;;4988509;28;20653;-88
2021/09/05 06:12:27;;;;;;;12.20;11.27;;;13.50;99.90;;;;;;4993427;28;20617;-89
2021/09/05 06:14:54;;;;;;;12.63;11.63;;;13.60;99.90;;;;;;4990341;28;21451;-89
2021/09/05 06:17:22;;;;;;;11.30;10.30;;;13.70;99.90;;;;;;4994644;28;20616;-87
2021/09/05 06:19:49;;;;;;;13.03;11.83;;;13.90;99.90;;;;;;4985744;28;20728;-89
2021/09/05 06:22:16;;;;;;;13.83;12.23;;;13.90;99.90;;;;;;4998175;28;20628;-89
2021/09/05 06:24:42;;;;;;;11.60;10.60;;;14.00;99.90;;;;;;5000786;28;20770;-89
2021/09/05 06:27:10;;;;;;;11.60;10.70;;;14.10;99.90;;;;;;4993208;28;20633;-89
2021/09/05 06:29:36;;;;;;;12.80;11.00;;;14.10;99.90;;;;;;4995422;28;21015;-89
2021/09/05 06:32:04;;;;;;;14.57;11.57;;;14.30;99.90;;;;;;4989010;28;20639;-88
2021/09/05 06:34:32;;;;;;;11.70;10.50;;;14.40;99.90;;;;;;4989015;28;20632;-88
2021/09/05 06:36:59;;;;;;;13.90;12.80;;;14.40;99.90;;;;;;4990378;28;20986;-88
2021/09/05 06:39:26;;;;;;;11.73;10.63;;;14.50;99.90;;;;;;4994850;28;20662;-88
2021/09/05 06:41:53;;;;;;;12.00;11.00;;;14.50;99.90;;;;;;4985417;28;20618;-90
2021/09/05 06:44:20;;;;;;;12.50;11.50;;;14.60;99.90;;;;;;4985765;28;20667;-90
2021/09/05 06:46:47;;;;;;;13.03;11.87;;;14.70;99.90;;;;;;4996158;28;20629;-90
2021/09/05 06:49:13;;;;;;;12.80;11.77;;;14.80;99.90;;;;;;4994273;28;20635;-88
2021/09/05 06:51:41;;;;;;;12.57;11.57;;;14.90;99.90;;;;;;4987232;28;20671;-88
2021/09/05 06:54:08;;;;;;;11.40;10.50;;;15.00;99.90;;;;;;4989724;28;20609;-89
2021/09/05 06:56:35;;;;;;;12.10;10.80;;;15.00;99.90;;;;;;4992308;28;20631;-89
2021/09/05 06:59:02;;;;;;;12.90;11.70;;;15.10;99.90;;;;;;4991478;28;20668;-88
2021/09/05 07:01:29;;;;;;;13.07;11.90;;;15.20;99.90;;;;;;4992656;28;20661;-89
2021/09/05 07:03:56;;;;;;;12.23;11.07;;;15.40;99.90;;;;;;4997118;28;20657;-88
2021/09/05 07:06:23;;;;;;;12.10;11.10;;;15.50;99.90;;;;;;4996907;28;21191;-89
2021/09/05 07:08:54;;;;;;;12.43;11.33;;;15.60;99.90;;;;;;4986659;28;20625;-88
2021/09/05 07:11:21;;;;;;;11.30;10.27;;;15.60;99.90;;;;;;4988222;28;20648;-88
2021/09/05 07:13:47;;;;;;;14.10;11.07;;;15.80;99.90;;;;;;4988811;28;20604;-88
2021/09/05 07:16:14;;;;;;;11.30;10.27;;;15.90;99.90;;;;;;4992349;28;20670;-89
2021/09/05 07:18:41;;;;;;;12.37;11.37;;;16.00;99.90;;;;;;4984342;28;20631;-88
2021/09/05 07:21:08;;;;;;;12.67;11.67;;;16.10;99.90;;;;;;4981156;28;20653;-88
2021/09/05 07:23:35;;;;;;;11.17;10.17;;;16.30;99.90;;;;;;4992656;28;20620;-88
2021/09/05 07:26:04;;;;;;;12.57;11.27;;;16.50;99.90;;;;;;4979743;28;20663;-89
2021/09/05 07:28:32;;;;;;;11.03;10.13;;;16.60;99.90;;;;;;4990369;28;20645;-88
2021/09/05 07:30:59;;;;;;;11.57;10.40;;;16.60;99.90;;;;;;4982901;28;20668;-89
2021/09/05 07:33:26;;;;;;;11.63;10.70;;;16.70;99.90;;;;;;4986925;28;20627;-88
2021/09/05 07:35:53;;;;;;;10.33;9.57;;;16.90;99.90;;;;;;4987403;28;21176;-90
2021/09/05 07:38:20;;;;;;;11.67;10.47;;;17.00;99.90;;;;;;4990218;28;20613;-89
2021/09/05 07:40:47;;;;;;;11.47;10.47;;;17.10;99.90;;;;;;4987766;28;21040;-89
2021/09/05 07:43:15;;;;;;;12.03;10.13;;;17.10;99.90;;;;;;4986829;28;20631;-88
2021/09/05 07:45:42;;;;;;;10.47;9.57;;;17.20;99.90;;;;;;4988359;28;20604;-90
2021/09/05 07:48:09;;;;;;;10.90;9.90;;;17.40;99.90;;;;;;4984103;28;20613;-89
2021/09/05 07:50:36;;;;;;;10.60;9.60;;;17.50;99.90;;;;;;4992959;28;20662;-89
2021/09/05 07:53:03;;;;;;;10.20;9.20;;;17.70;99.90;;;;;;4988364;28;20589;-89
2021/09/05 07:55:30;;;;;;;9.90;9.00;;;17.90;99.90;;;;;;4991014;28;20633;-89
2021/09/05 07:57:56;;;;;;;9.80;8.80;;;17.90;99.90;;;;;;4967047;28;21012;-89
2021/09/05 08:00:25;;;;;;;9.97;9.17;;;18.10;99.90;;;;;;4989696;28;20791;-89
2021/09/05 08:02:51;;;;;;;10.10;9.30;;;18.10;99.90;;;;;;4985741;28;21214;-88
2021/09/05 08:05:18;;;;;;;10.13;9.23;;;18.30;99.90;;;;;;4992162;28;21182;-88
2021/09/05 08:07:45;;;;;;;9.93;8.93;;;18.50;99.90;;;;;;4986730;28;20625;-89
2021/09/05 08:10:12;;;;;;;9.10;8.40;;;18.50;99.90;;;;;;4983502;28;20651;-89
2021/09/05 08:12:39;;;;;;;9.10;8.33;;;18.70;99.90;;;;;;4993466;28;20620;-89
2021/09/05 08:15:07;;;;;;;19.87;15.73;;;18.60;99.90;;;;;;4986044;28;20625;-87
2021/09/05 08:17:35;;;;;;;14.10;12.67;;;18.80;99.90;;;;;;4992449;28;20634;-89
2021/09/05 08:20:03;;;;;;;10.27;9.30;;;19.00;99.90;;;;;;4989542;28;20683;-88
2021/09/05 08:22:30;;;;;;;11.20;9.40;;;19.20;99.90;;;;;;4986772;28;20621;-88
2021/09/05 08:24:57;;;;;;;8.70;7.87;;;19.40;99.90;;;;;;4968915;28;20944;-89
2021/09/05 08:27:24;;;;;;;8.83;8.13;;;19.40;99.90;;;;;;4989294;28;20990;-88
2021/09/05 08:29:51;;;;;;;9.70;8.97;;;19.40;99.90;;;;;;4988383;28;21218;-89
2021/09/05 08:32:18;;;;;;;10.17;9.27;;;19.50;99.90;;;;;;4994915;28;20643;-89
2021/09/05 08:34:46;;;;;;;8.90;8.10;;;19.80;99.90;;;;;;4991103;28;20646;-90
2021/09/05 08:37:13;;;;;;;10.13;9.23;;;19.70;99.90;;;;;;4981866;28;20637;-89
2021/09/05 08:39:40;;;;;;;8.50;7.80;;;19.90;99.90;;;;;;4989090;28;20672;-89
2021/09/05 08:42:09;;;;;;;7.90;7.30;;;20.00;99.90;;;;;;4996502;28;20769;-89
2021/09/05 08:44:35;;;;;;;7.90;7.10;;;20.30;99.90;;;;;;4987111;28;20639;-89
2021/09/05 08:47:02;;;;;;;10.90;7.43;;;20.50;99.90;;;;;;4987549;28;20632;-89
2021/09/05 08:49:34;;;;;;;9.20;8.27;;;20.50;99.90;;;;;;4985967;28;20621;-90
2021/09/05 08:52:03;;;;;;;8.20;7.50;;;20.70;99.90;;;;;;4985783;28;20641;-90
2021/09/05 08:54:30;;;;;;;8.53;7.83;;;20.90;99.90;;;;;;4990099;28;20635;-89
2021/09/05 08:56:57;;;;;;;7.83;7.17;;;21.30;99.90;;;;;;4982820;28;20621;-90
2021/09/05 08:59:24;;;;;;;6.97;6.27;;;21.40;99.90;;;;;;4991432;28;20712;-88
2021/09/05 09:01:55;;;;;;;7.83;6.23;;;21.50;99.90;;;;;;4990365;28;20621;-90
2021/09/05 09:04:22;;;;;;;7.53;6.83;;;21.40;99.90;;;;;;4993283;28;20629;-89
2021/09/05 09:06:50;;;;;;;6.70;6.13;;;21.70;99.90;;;;;;4987334;28;20641;-89
2021/09/05 09:09:18;;;;;;;8.00;7.30;;;22.10;99.90;;;;;;4991094;28;20624;-90
2021/09/05 09:11:53;;;;;;;7.23;6.53;;;22.20;99.90;;;;;;4990097;28;21139;-89
2021/09/05 09:14:23;;;;;;;6.83;6.13;;;22.20;99.90;;;;;;4984847;28;20621;-90
2021/09/05 09:16:50;;;;;;;6.93;6.33;;;22.50;99.90;;;;;;4991163;28;20625;-90
2021/09/05 09:19:24;;;;;;;6.87;6.17;;;22.50;99.90;;;;;;4987936;28;20970;-89
2021/09/05 09:21:51;;;;;;;6.80;6.30;;;22.80;99.90;;;;;;4968377;28;21012;-90
2021/09/05 09:24:21;;;;;;;7.37;6.77;;;22.90;99.90;;;;;;4986404;28;20624;-88
2021/09/05 09:27:00;;;;;;;7.03;6.50;;;23.00;99.90;;;;;;4998896;28;20620;-90
2021/09/05 09:29:27;;;;;;;5.83;5.30;;;23.20;99.90;;;;;;5002709;28;20648;-89
2021/09/05 09:32:02;;;;;;;6.53;6.00;;;23.30;99.90;;;;;;4986037;28;20633;-90
2021/09/05 09:34:31;;;;;;;6.10;5.50;;;23.50;99.90;;;;;;4993894;28;21251;-90
2021/09/05 09:36:59;;;;;;;6.37;5.77;;;23.70;99.90;;;;;;4984419;28;21198;-90
2021/09/05 09:39:29;;;;;;;6.37;5.80;;;24.10;99.90;;;;;;4989301;28;20638;-91
2021/09/05 09:41:56;;;;;;;6.13;5.50;;;24.10;99.90;;;;;;4992202;28;20640;-88
2021/09/05 09:44:29;;;;;;;6.07;5.47;;;24.20;99.90;;;;;;4968594;28;20626;-88
2021/09/05 09:47:09;;;;;;;5.80;5.30;;;24.50;99.90;;;;;;4990138;28;20633;-88
2021/09/05 09:49:48;;;;;;;7.97;5.60;;;24.70;99.90;;;;;;4981819;28;20685;-89
2021/09/05 09:52:16;;;;;;;6.80;6.27;;;25.00;99.90;;;;;;4985986;28;20632;-89
2021/09/05 09:54:45;;;;;;;5.67;5.17;;;25.10;99.90;;;;;;4989661;28;20662;-89
2021/09/05 09:57:12;;;;;;;5.70;5.03;;;25.50;96.90;;;;;;4985965;28;20624;-90
2021/09/05 09:59:39;;;;;;;5.87;5.37;;;25.50;97.20;;;;;;4993813;28;20697;-90
2021/09/05 10:02:14;;;;;;;6.20;4.97;;;25.30;97.50;;;;;;4990838;28;20630;-90
2021/09/05 10:04:41;;;;;;;5.80;5.20;;;25.70;94.50;;;;;;4991705;28;20612;-89
2021/09/05 10:07:09;;;;;;;5.17;4.77;;;26.20;94.40;;;;;;4993095;28;20636;-90
2021/09/05 10:09:37;;;;;;;6.60;5.20;;;26.60;94.10;;;;;;4991438;28;20658;-91
2021/09/05 10:12:06;;;;;;;5.93;4.67;;;26.70;91.50;;;;;;4988130;28;20656;-90
2021/09/05 10:14:33;;;;;;;4.90;4.50;;;26.60;92.10;;;;;;4984508;28;20659;-90
2021/09/05 10:17:01;;;;;;;6.80;4.80;;;26.60;91.70;;;;;;4993001;28;20632;-90
2021/09/05 10:19:29;;;;;;;4.40;4.10;;;26.40;90.10;;;;;;4978271;28;21019;-90
2021/09/05 10:21:56;;;;;;;5.10;4.70;;;26.20;87.30;;;;;;4993500;28;21063;-90
2021/09/05 10:24:23;;;;;;;5.40;4.63;;;26.50;88.20;;;;;;4994697;28;20672;-90
2021/09/05 10:26:59;;;;;;;5.00;4.60;;;26.10;90.00;;;;;;4984638;28;21225;-90
2021/09/05 10:29:27;;;;;;;4.80;4.50;;;26.00;90.60;;;;;;4988535;28;20767;-90
2021/09/05 10:31:54;;;;;;;5.60;5.07;;;26.40;90.60;;;;;;4984047;28;20629;-90
2021/09/05 10:34:33;;;;;;;5.40;4.80;;;26.70;89.00;;;;;;4987167;28;21018;-91
2021/09/05 10:37:08;;;;;;;4.50;4.20;;;26.70;87.90;;;;;;4990081;28;20624;-91
2021/09/05 10:39:35;;;;;;;4.40;4.00;;;27.30;85.10;;;;;;4990244;28;21185;-90
2021/09/05 10:42:02;;;;;;;5.47;5.03;;;26.80;87.80;;;;;;4985974;28;20628;-90
2021/09/05 10:45:01;;;;;;;5.13;4.73;;;27.10;85.90;;;;;;4992263;28;20755;-91
2021/09/05 10:47:40;;;;;;;4.73;4.37;;;27.60;80.90;;;;;;4990505;28;20978;-91
2021/09/05 10:50:31;;;;;;;5.30;4.90;;;27.60;81.60;;;;;;4991335;28;20628;-89
2021/09/05 10:53:14;;;;;;;5.60;5.20;;;27.60;78.50;;;;;;4991937;28;20739;-92
2021/09/05 10:56:03;;;;;;;5.40;5.00;;;27.70;77.00;;;;;;4983006;28;20659;-90
2021/09/05 10:58:37;;;;;;;5.20;4.70;;;27.70;78.90;;;;;;4993265;28;20620;-90
2021/09/05 11:01:20;;;;;;;5.63;5.17;;;27.90;77.80;;;;;;4989438;28;20715;-91
2021/09/05 11:04:17;;;;;;;5.13;4.50;;;28.10;76.70;;;;;;4994990;28;20636;-89
2021/09/05 11:06:45;;;;;;;4.40;4.00;;;28.20;76.80;;;;;;4992076;28;20655;-90
2021/09/05 11:09:40;;;;;;;5.87;5.23;;;28.50;77.60;;;;;;4973611;28;20621;-90
2021/09/05 11:12:08;;;;;;;4.90;4.57;;;28.60;74.20;;;;;;4989542;28;20633;-90
2021/09/05 11:14:57;;;;;;;4.67;4.27;;;28.40;73.50;;;;;;4994198;28;21174;-90
2021/09/05 11:17:28;;;;;;;4.87;4.57;;;28.60;72.40;;;;;;4986493;28;20696;-91
2021/09/05 11:20:03;;;;;;;4.77;4.37;;;28.40;73.00;;;;;;4997550;28;20621;-90
2021/09/05 11:22:35;;;;;;;4.80;4.40;;;28.70;71.50;;;;;;5004519;28;20623;-89
2021/09/05 11:25:18;;;;;;;5.20;4.80;;;28.50;70.10;;;;;;4990842;28;20621;-90
2021/09/05 11:27:54;;;;;;;4.50;4.20;;;29.00;70.30;;;;;;4985498;28;21228;-90
2021/09/05 11:30:23;;;;;;;5.03;4.67;;;29.20;68.80;;;;;;4991817;28;20629;-91
2021/09/05 11:33:01;;;;;;;5.60;5.20;;;30.00;69.00;;;;;;4981323;28;20617;-90
2021/09/05 11:35:33;;;;;;;5.13;4.73;;;29.70;70.50;;;;;;4992594;28;20636;-90
2021/09/05 11:38:00;;;;;;;5.67;5.10;;;29.80;68.30;;;;;;4996619;28;20619;-90
2021/09/05 11:40:27;;;;;;;4.90;4.50;;;29.90;69.10;;;;;;5004810;28;20647;-90
2021/09/05 11:42:56;;;;;;;4.27;3.97;;;29.80;66.80;;;;;;5003663;28;20616;-90
2021/09/05 11:45:26;;;;;;;4.80;4.40;;;30.10;70.00;;;;;;4993274;28;20751;-90
2021/09/05 11:48:01;;;;;;;4.40;4.10;;;30.40;63.60;;;;;;4988827;28;20613;-90
2021/09/05 11:50:29;;;;;;;4.00;3.70;;;30.50;62.40;;;;;;4991223;28;20637;-90
2021/09/05 11:52:56;;;;;;;5.23;4.77;;;30.80;61.70;;;;;;4985243;28;20606;-90
2021/09/05 11:55:23;;;;;;;5.23;4.70;;;30.80;61.70;;;;;;4991840;28;20631;-91
2021/09/05 11:57:55;;;;;;;4.80;4.40;;;31.00;61.20;;;;;;4989795;28;20633;-91
2021/09/05 12:00:27;;;;;;;4.47;4.13;;;30.80;59.50;;;;;;4995300;28;20662;-91
2021/09/05 12:02:56;;;;;;;11.90;6.73;;;30.50;60.00;;;;;;4994739;28;20632;-91
2021/09/05 12:05:25;;;;;;;5.37;5.00;;;31.10;61.20;;;;;;4997126;28;21189;-90
2021/09/05 12:07:52;;;;;;;4.70;4.40;;;30.70;58.70;;;;;;4989978;28;20636;-91
2021/09/05 12:10:21;;;;;;;5.13;4.73;;;30.80;60.50;;;;;;4987084;28;20997;-90
2021/09/05 12:13:06;;;;;;;5.40;4.70;;;31.30;58.30;;;;;;4991508;28;20633;-90
2021/09/05 12:15:35;;;;;;;5.57;5.17;;;31.50;58.70;;;;;;4990457;28;21090;-91
2021/09/05 12:18:03;;;;;;;4.57;4.27;;;31.40;58.40;;;;;;4984872;28;20637;-91
2021/09/05 12:20:42;;;;;;;5.10;4.70;;;31.70;59.20;;;;;;4989916;28;20662;-90
2021/09/05 12:23:20;;;;;;;4.90;4.60;;;32.10;57.00;;;;;;4995212;28;20605;-90
2021/09/05 12:25:47;;;;;;;4.97;4.63;;;32.30;56.50;;;;;;4996639;28;20652;-90
2021/09/05 12:28:20;;;;;;;4.40;4.10;;;32.50;55.60;;;;;;4993973;28;20608;-90
2021/09/05 12:30:50;;;;;;;4.30;4.00;;;31.90;56.20;;;;;;4988341;28;20624;-90
2021/09/05 12:33:19;;;;;;;4.70;4.40;;;32.90;54.60;;;;;;4998047;28;20631;-90
2021/09/05 12:35:49;;;;;;;5.33;4.93;;;33.40;53.00;;;;;;4996801;28;20651;-90
2021/09/05 12:38:17;;;;;;;4.13;3.83;;;33.00;53.60;;;;;;4995197;28;20208;-90
2021/09/05 12:40:46;;;;;;;4.03;3.73;;;33.20;52.70;;;;;;4998474;28;20248;-90
2021/09/05 12:43:14;;;;;;;5.30;4.80;;;32.90;55.50;;;;;;4993144;28;20205;-89
2021/09/05 12:45:52;;;;;;;4.40;4.10;;;32.90;54.30;;;;;;4997439;28;20228;-90